Dades meteomassalio
Diari Summary for Maig 1, 2017 Units:  English    Metric   Both
« Previous Day
Next Day »
Diari Semanal Mensual Anual Personalitzat
  Maxima: Minima: Mijana:
Temperatura: TemperatureC °F 5.4 °F 12.1 °F
Rosada: DewpointC °F -2.1 °F 2.5 °F
Humitat: Humidity % 26 % 56 %
Velocitat del vent: WindSpeedKMH mph 0.0 mph 13.5 mph
Racha vent: WindSpeedGustKMH mph - -
Vent:- - WNW
Pressio: PressurehPa in 1013.1 in -
Pluja: 0.0 in    
Historical Graphs
 
 
Tabular Data for Maig 1, 2017
Time Temperature Dew Point Pressure Wind Wind Speed Wind Gust Humidity Rainfall Rate (Hourly) solar Conditions
TemperatureC °F DewpointC °F PressurehPa in Calm     Humidity % HourlyPrecipMM in SolarRadiationWatts/m^2 W/m2 Conditions
00:01 11.4 °F 7.9 °F 1013.1 in Calm     79 % 0.0 in 0.0 W/m2 RA
00:06 11.4 °F 7.9 °F 1013.1 in Calm     79 % 0.0 in 0.0 W/m2 CLR
00:11 11.4 °F 7.9 °F 1013.1 in Calm     79 % 0.0 in 0.0 W/m2 CLR
00:16 11.4 °F 7.9 °F 1013.4 in Calm     79 % 0.0 in 0.0 W/m2 CLR
00:21 11.3 °F 8.0 °F 1013.4 in Calm     80 % 0.0 in 0.0 W/m2 CLR
00:26 11.2 °F 7.9 °F 1013.8 in Calm     80 % 0.0 in 0.0 W/m2 CLR
00:31 11.2 °F 8.1 °F 1013.8 in Calm     81 % 0.0 in 0.0 W/m2 CLR
00:36 11.2 °F 8.0 °F 1013.8 in Calm     81 % 0.0 in 0.0 W/m2 CLR
00:41 11.2 °F 8.2 °F 1013.8 in Calm     82 % 0.0 in 0.0 W/m2 CLR
00:42 11.2 °F 8.2 °F 1013.8 in Calm     82 % 0.0 in 0.0 W/m2 CLR
00:47 11.2 °F 8.4 °F 1014.1 in Calm     83 % 0.0 in 0.0 W/m2 CLR
00:52 11.1 °F 8.1 °F 1014.1 in Calm     82 % 0.0 in 0.0 W/m2 CLR
00:57 11.0 °F 8.1 °F 1014.1 in Calm     82 % 0.0 in 0.0 W/m2 CLR
01:02 10.9 °F 7.6 °F 1014.1 in Calm     80 % 0.0 in 0.0 W/m2 CLR
01:07 10.9 °F 7.4 °F 1014.1 in Calm     79 % 0.0 in 0.0 W/m2 CLR
01:12 10.8 °F 7.3 °F 1014.4 in Calm     79 % 0.0 in 0.0 W/m2 CLR
01:17 10.7 °F 7.0 °F 1014.4 in NW 16.1 mph 16.1 mph 78 % 0.0 in 0.0 W/m2 CLR
01:22 10.6 °F 6.6 °F 1014.4 in NNW 18.5 mph 18.5 mph 76 % 0.0 in 0.0 W/m2 CLR
01:27 10.6 °F 6.6 °F 1014.8 in NNW 18.5 mph 18.5 mph 76 % 0.0 in 0.0 W/m2 CLR
01:32 10.6 °F 6.5 °F 1014.8 in NNW 24.1 mph 24.1 mph 76 % 0.0 in 0.0 W/m2 CLR
01:37 10.4 °F 6.4 °F 1015.1 in NW 27.8 mph 27.8 mph 76 % 0.0 in 0.0 W/m2 CLR
01:42 10.4 °F 6.6 °F 1015.1 in NW 14.8 mph 14.8 mph 77 % 0.0 in 0.0 W/m2 CLR
01:47 10.3 °F 6.4 °F 1015.1 in NW 24.1 mph 24.1 mph 77 % 0.0 in 0.0 W/m2 CLR
01:52 10.2 °F 6.5 °F 1015.1 in NW 18.5 mph 18.5 mph 78 % 0.0 in 0.0 W/m2 CLR
01:57 10.0 °F 6.5 °F 1015.5 in NW 16.7 mph 16.7 mph 79 % 0.0 in 0.0 W/m2 CLR
02:02 9.9 °F 6.6 °F 1015.5 in NW 20.4 mph 20.4 mph 80 % 0.0 in 0.0 W/m2 CLR
02:07 9.8 °F 6.7 °F 1015.5 in WNW 24.1 mph 24.1 mph 81 % 0.0 in 0.0 W/m2 CLR
02:12 9.7 °F 6.6 °F 1015.5 in NW 18.5 mph 18.5 mph 81 % 0.0 in 0.0 W/m2 CLR
02:17 9.4 °F 6.3 °F 1015.8 in WNW 20.4 mph 20.4 mph 81 % 0.0 in 0.0 W/m2 CLR
02:22 9.3 °F 6.2 °F 1015.8 in NW 16.7 mph 16.7 mph 81 % 0.0 in 0.0 W/m2 CLR
02:27 9.2 °F 6.1 °F 1015.8 in WNW 14.8 mph 14.8 mph 81 % 0.0 in 0.0 W/m2 CLR
02:32 9.1 °F 5.8 °F 1015.8 in NW 16.7 mph 16.7 mph 80 % 0.0 in 0.0 W/m2 CLR
02:37 8.9 °F 5.7 °F 1015.8 in NW 20.4 mph 20.4 mph 80 % 0.0 in 0.0 W/m2 CLR
02:42 8.8 °F 5.4 °F 1015.8 in WNW 25.9 mph 25.9 mph 79 % 0.0 in 0.0 W/m2 CLR
02:47 8.7 °F 5.3 °F 1015.8 in WNW 16.1 mph 16.1 mph 79 % 0.0 in 0.0 W/m2 CLR
02:52 8.6 °F 5.3 °F 1015.8 in WNW 14.8 mph 14.8 mph 80 % 0.0 in 0.0 W/m2 CLR
02:57 8.4 °F 5.1 °F 1016.1 in WNW 18.5 mph 18.5 mph 80 % 0.0 in 0.0 W/m2 CLR
03:02 8.2 °F 5.0 °F 1016.1 in WNW 12.9 mph 12.9 mph 80 % 0.0 in 0.0 W/m2 CLR
03:07 8.1 °F 4.8 °F 1016.1 in NW 13.0 mph 13.0 mph 80 % 0.0 in 0.0 W/m2 CLR
03:12 7.9 °F 4.7 °F 1016.1 in West 20.4 mph 20.4 mph 80 % 0.0 in 0.0 W/m2 CLR
03:17 7.8 °F 4.4 °F 1016.1 in West 14.8 mph 14.8 mph 79 % 0.0 in 0.0 W/m2 CLR
03:22 7.8 °F 4.4 °F 1016.5 in NW 16.7 mph 16.7 mph 79 % 0.0 in 0.0 W/m2 CLR
03:27 7.7 °F 4.3 °F 1016.5 in WNW 18.5 mph 18.5 mph 79 % 0.0 in 0.0 W/m2 CLR
03:32 7.5 °F 4.1 °F 1016.5 in WNW 18.5 mph 18.5 mph 79 % 0.0 in 0.0 W/m2 CLR
03:37 7.3 °F 3.9 °F 1016.5 in West 16.7 mph 16.7 mph 79 % 0.0 in 0.0 W/m2 CLR
03:42 7.3 °F 4.1 °F 1016.5 in NW 14.8 mph 14.8 mph 80 % 0.0 in 0.0 W/m2 CLR
03:47 7.1 °F 3.9 °F 1016.5 in NW 13.0 mph 13.0 mph 80 % 0.0 in 0.0 W/m2 CLR
03:52 7.1 °F 3.8 °F 1016.8 in WNW 16.7 mph 16.7 mph 80 % 0.0 in 0.0 W/m2 CLR
03:57 6.9 °F 3.9 °F 1016.8 in NW 14.8 mph 14.8 mph 81 % 0.0 in 0.0 W/m2 CLR
04:02 6.8 °F 3.8 °F 1016.8 in NW 11.1 mph 11.1 mph 81 % 0.0 in 0.0 W/m2 CLR
04:08 6.8 °F 3.7 °F 1016.8 in WNW 9.7 mph 9.8 mph 81 % 0.0 in 0.0 W/m2 CLR
04:13 6.7 °F 3.7 °F 1016.8 in WNW 9.3 mph 9.3 mph 81 % 0.0 in 0.0 W/m2 CLR
04:18 6.6 °F 3.6 °F 1017.2 in Calm     81 % 0.0 in 0.0 W/m2 CLR
04:23 6.6 °F 3.5 °F 1017.2 in Calm     81 % 0.0 in 0.0 W/m2 CLR
04:28 6.7 °F 3.7 °F 1017.2 in Calm     81 % 0.0 in 0.0 W/m2 CLR
04:33 6.8 °F 3.6 °F 1017.5 in Calm     80 % 0.0 in 0.0 W/m2 CLR
04:38 6.9 °F 3.7 °F 1017.5 in West 9.7 mph 9.7 mph 80 % 0.0 in 0.0 W/m2 CLR
04:43 6.9 °F 3.7 °F 1017.5 in WSW 11.3 mph 11.3 mph 80 % 0.0 in 0.0 W/m2 CLR
04:48 6.9 °F 3.7 °F 1017.5 in WNW 13.0 mph 13.0 mph 80 % 0.0 in 0.0 W/m2 CLR
04:53 6.8 °F 3.6 °F 1017.8 in WNW 11.1 mph 11.1 mph 80 % 0.0 in 0.0 W/m2 CLR
04:58 6.7 °F 3.5 °F 1017.8 in WNW 9.3 mph 9.3 mph 80 % 0.0 in 0.0 W/m2 CLR
05:03 6.6 °F 3.5 °F 1017.8 in WNW 5.6 mph 5.6 mph 81 % 0.0 in 0.0 W/m2 CLR
05:08 6.4 °F 3.4 °F 1017.8 in NW 4.8 mph 4.8 mph 81 % 0.0 in 0.0 W/m2 CLR
05:13 6.3 °F 3.5 °F 1017.8 in Calm     82 % 0.0 in 0.0 W/m2 CLR
05:18 6.3 °F 3.4 °F 1017.8 in Calm     82 % 0.0 in 0.0 W/m2 CLR
05:23 6.1 °F 3.3 °F 1017.8 in Calm     82 % 0.0 in 0.0 W/m2 CLR
05:28 5.9 °F 3.2 °F 1017.8 in Calm     83 % 0.0 in 0.0 W/m2 CLR
05:33 5.8 °F 3.3 °F 1017.8 in Calm     84 % 0.0 in 0.0 W/m2 CLR
05:38 5.6 °F 3.1 °F 1017.8 in Calm     84 % 0.0 in 0.0 W/m2 CLR
05:43 5.7 °F 3.2 °F 1018.2 in Calm     84 % 0.0 in 0.0 W/m2 CLR
05:48 5.9 °F 3.2 °F 1018.2 in Calm     83 % 0.0 in 0.0 W/m2 CLR
05:53 5.8 °F 3.2 °F 1018.2 in Calm     83 % 0.0 in 0.0 W/m2 CLR
05:58 5.8 °F 3.2 °F 1018.2 in Calm     83 % 0.0 in 0.0 W/m2 CLR
06:03 5.6 °F 3.1 °F 1018.2 in SW 5.6 mph 5.6 mph 84 % 0.0 in 0.0 W/m2 CLR
06:08 5.4 °F 3.1 °F 1018.5 in WSW 11.1 mph 11.1 mph 85 % 0.0 in 0.0 W/m2 CLR
06:13 5.5 °F 3.2 °F 1018.5 in SW 11.1 mph 11.1 mph 85 % 0.0 in 0.0 W/m2 CLR
06:18 5.6 °F 3.2 °F 1018.5 in WSW 11.1 mph 11.1 mph 85 % 0.0 in 0.0 W/m2 CLR
06:23 5.6 °F 3.3 °F 1018.5 in WSW 7.4 mph 7.4 mph 85 % 0.0 in 0.0 W/m2 CLR
06:28 5.7 °F 3.3 °F 1018.8 in West 11.1 mph 11.1 mph 85 % 0.0 in 0.0 W/m2 CLR
06:33 5.8 °F 3.3 °F 1018.8 in West 11.1 mph 11.1 mph 84 % 0.0 in 0.0 W/m2 CLR
06:38 6.0 °F 3.3 °F 1018.8 in WSW 5.6 mph 5.6 mph 83 % 0.0 in 0.0 W/m2 CLR
06:43 6.2 °F 3.3 °F 1018.8 in West 13.0 mph 13.0 mph 82 % 0.0 in 0.0 W/m2 CLR
06:48 6.4 °F 3.4 °F 1018.8 in West 13.0 mph 13.0 mph 81 % 0.0 in 0.0 W/m2 OVC
06:53 6.5 °F 3.3 °F 1018.8 in WNW 13.0 mph 13.0 mph 80 % 0.0 in 0.0 W/m2 OVC
06:58 6.6 °F 3.4 °F 1018.8 in West 13.0 mph 13.0 mph 80 % 0.0 in 5.0 W/m2 OVC
07:03 6.7 °F 3.2 °F 1019.2 in West 14.8 mph 14.8 mph 78 % 0.0 in 7.0 W/m2 BKN
07:08 6.7 °F 3.1 °F 1019.2 in West 9.3 mph 9.3 mph 78 % 0.0 in 11.0 W/m2 BKN
07:13 6.7 °F 3.3 °F 1019.2 in West 11.1 mph 11.1 mph 79 % 0.0 in 14.0 W/m2 BKN
07:18 6.7 °F 3.2 °F 1019.2 in Calm   1.3 mph 78 % 0.0 in 18.0 W/m2 BKN
07:23 6.8 °F 3.3 °F 1019.2 in West 12.9 mph 12.9 mph 78 % 0.0 in 23.0 W/m2 BKN
07:28 6.9 °F 3.4 °F 1019.2 in Calm     78 % 0.0 in 30.0 W/m2 BKN
07:33 7.1 °F 3.3 °F 1019.2 in WNW 1.6 mph 1.6 mph 77 % 0.0 in 47.0 W/m2 BKN
07:38 7.2 °F 3.4 °F 1019.5 in West 3.7 mph 3.7 mph 77 % 0.0 in 44.0 W/m2 SCT
07:43 7.4 °F 3.4 °F 1019.5 in WNW 18.5 mph 18.5 mph 76 % 0.0 in 51.0 W/m2 SCT
07:48 7.5 °F 3.3 °F 1019.5 in WNW 9.3 mph 9.3 mph 75 % 0.0 in 67.0 W/m2 FEW
07:53 7.7 °F 3.3 °F 1019.5 in West 18.5 mph 18.5 mph 74 % 0.0 in 79.0 W/m2 FEW
07:58 7.8 °F 3.4 °F 1019.5 in WNW 16.7 mph 16.7 mph 74 % 0.0 in 98.0 W/m2 FEW
08:03 7.8 °F 3.5 °F 1019.5 in West 14.8 mph 14.8 mph 74 % 0.0 in 114.0 W/m2 CLR
08:08 7.9 °F 3.4 °F 1019.5 in West 18.5 mph 18.5 mph 73 % 0.0 in 132.0 W/m2 CLR
08:13 8.0 °F 3.7 °F 1019.9 in West 18.5 mph 18.5 mph 74 % 0.0 in 149.0 W/m2 CLR
08:18 8.1 °F 3.5 °F 1019.9 in West 18.5 mph 18.5 mph 73 % 0.0 in 172.0 W/m2 CLR
08:19 8.0 °F 3.4 °F 1019.9 in West 18.5 mph 18.5 mph 73 % 0.0 in 172.0 W/m2 CLR
08:24 8.2 °F 3.6 °F 1019.9 in West 14.8 mph 14.8 mph 73 % 0.0 in 192.0 W/m2 CLR
08:29 8.3 °F 3.7 °F 1019.9 in West 18.5 mph 18.5 mph 73 % 0.0 in 216.0 W/m2 CLR
08:34 8.4 °F 3.9 °F 1019.9 in WNW 11.1 mph 11.1 mph 73 % 0.0 in 236.0 W/m2 CLR
08:39 8.6 °F 4.0 °F 1019.9 in West 20.4 mph 20.4 mph 73 % 0.0 in 236.0 W/m2 CLR
08:44 8.7 °F 3.9 °F 1019.9 in West 14.8 mph 14.8 mph 72 % 0.0 in 269.0 W/m2 CLR
08:49 8.8 °F 4.1 °F 1019.9 in WNW 14.8 mph 14.8 mph 72 % 0.0 in 244.0 W/m2 CLR
08:54 8.9 °F 4.2 °F 1020.2 in WNW 18.5 mph 18.5 mph 72 % 0.0 in 302.0 W/m2 CLR
08:59 8.9 °F 3.7 °F 1020.2 in WNW 24.1 mph 24.1 mph 70 % 0.0 in 272.0 W/m2 CLR
09:04 9.0 °F 4.0 °F 1020.2 in WNW 22.2 mph 22.2 mph 71 % 0.0 in 338.0 W/m2 CLR
09:09 9.1 °F 3.9 °F 1020.2 in NW 24.1 mph 24.1 mph 70 % 0.0 in 355.0 W/m2 CLR
09:14 9.1 °F 3.9 °F 1020.2 in NW 18.5 mph 18.5 mph 70 % 0.0 in 371.0 W/m2 CLR
09:19 9.2 °F 3.8 °F 1020.5 in WNW 22.2 mph 22.2 mph 69 % 0.0 in 387.0 W/m2 CLR
09:24 9.3 °F 3.7 °F 1020.5 in NW 22.2 mph 22.2 mph 68 % 0.0 in 202.0 W/m2 CLR
09:29 9.5 °F 3.9 °F 1020.5 in NW 27.8 mph 27.8 mph 68 % 0.0 in 142.0 W/m2 CLR
09:34 9.4 °F 3.8 °F 1020.5 in WNW 29.6 mph 29.6 mph 68 % 0.0 in 438.0 W/m2 CLR
09:39 9.6 °F 4.0 °F 1020.5 in WNW 25.9 mph 25.9 mph 68 % 0.0 in 464.0 W/m2 CLR
09:44 9.8 °F 4.4 °F 1020.2 in WNW 27.8 mph 27.8 mph 69 % 0.0 in 473.0 W/m2 CLR
09:49 9.8 °F 3.9 °F 1020.2 in WNW 31.5 mph 31.5 mph 67 % 0.0 in 490.0 W/m2 CLR
09:54 9.9 °F 4.1 °F 1020.2 in WNW 29.6 mph 29.6 mph 67 % 0.0 in 508.0 W/m2 CLR
09:59 10.2 °F 4.2 °F 1020.2 in WNW 25.9 mph 25.9 mph 66 % 0.0 in 520.0 W/m2 CLR
10:04 10.3 °F 4.3 °F 1020.2 in WNW 24.1 mph 24.1 mph 66 % 0.0 in 504.0 W/m2 CLR
10:09 10.3 °F 4.1 °F 1020.2 in NW 35.2 mph 35.2 mph 65 % 0.0 in 515.0 W/m2 CLR
10:14 10.3 °F 4.1 °F 1020.5 in NW 35.2 mph 35.2 mph 65 % 0.0 in 538.0 W/m2 CLR
10:20 10.6 °F 4.0 °F 1020.5 in NW 22.2 mph 22.2 mph 64 % 0.0 in 580.0 W/m2 CLR
10:25 10.9 °F 4.3 °F 1020.5 in NW 25.7 mph 25.7 mph 64 % 0.0 in 598.0 W/m2 CLR
10:30 11.1 °F 4.5 °F 1020.5 in NW 19.3 mph 19.3 mph 64 % 0.0 in 612.0 W/m2 CLR
10:35 11.1 °F 3.8 °F 1020.5 in NNW 31.5 mph 31.5 mph 61 % 0.0 in 626.0 W/m2 CLR
10:40 11.3 °F 4.0 °F 1020.5 in North 20.4 mph 20.4 mph 61 % 0.0 in 642.0 W/m2 CLR
10:45 11.4 °F 3.9 °F 1020.5 in NNW 19.3 mph 20.1 mph 60 % 0.0 in 652.0 W/m2 CLR
10:50 11.5 °F 4.0 °F 1020.5 in NW 22.2 mph 22.2 mph 60 % 0.0 in 666.0 W/m2 CLR
10:55 11.7 °F 3.9 °F 1020.5 in WNW 20.4 mph 20.4 mph 59 % 0.0 in 684.0 W/m2 CLR
11:00 11.8 °F 3.6 °F 1020.5 in WNW 25.9 mph 25.9 mph 57 % 0.0 in 701.0 W/m2 CLR
11:05 11.9 °F 3.6 °F 1020.5 in WNW 31.5 mph 31.5 mph 57 % 0.0 in 710.0 W/m2 CLR
11:10 12.0 °F 3.7 °F 1020.5 in NW 18.5 mph 18.5 mph 57 % 0.0 in 708.0 W/m2 CLR
11:15 12.3 °F 3.6 °F 1020.5 in NW 27.8 mph 27.8 mph 55 % 0.0 in 735.0 W/m2 CLR
11:20 12.3 °F 3.3 °F 1020.2 in NW 31.5 mph 31.5 mph 54 % 0.0 in 745.0 W/m2 CLR
11:25 12.3 °F 3.0 °F 1020.5 in NW 29.6 mph 29.6 mph 53 % 0.0 in 751.0 W/m2 CLR
11:30 12.5 °F 2.6 °F 1020.5 in NW 29.6 mph 29.6 mph 51 % 0.0 in 772.0 W/m2 CLR
11:35 12.6 °F 3.7 °F 1020.5 in NNW 29.0 mph 29.0 mph 55 % 0.0 in 782.0 W/m2 CLR
11:40 12.7 °F 3.3 °F 1020.5 in WNW 18.5 mph 18.5 mph 53 % 0.0 in 791.0 W/m2 CLR
11:45 12.9 °F 2.4 °F 1020.5 in NNW 35.2 mph 35.2 mph 49 % 0.0 in 795.0 W/m2 CLR
11:50 12.9 °F 2.4 °F 1020.2 in NNW 25.9 mph 25.9 mph 49 % 0.0 in 807.0 W/m2 CLR
11:55 12.9 °F 2.4 °F 1020.2 in NW 24.1 mph 24.1 mph 49 % 0.0 in 816.0 W/m2 CLR
12:00 13.1 °F 2.3 °F 1020.2 in NW 32.2 mph 32.2 mph 48 % 0.0 in 826.0 W/m2 CLR
12:05 13.1 °F 2.3 °F 1020.2 in WNW 18.5 mph 18.5 mph 48 % 0.0 in 821.0 W/m2 CLR
12:10 13.2 °F 2.2 °F 1020.5 in NW 31.5 mph 31.5 mph 47 % 0.0 in 847.0 W/m2 CLR
12:15 13.5 °F 2.1 °F 1020.2 in WNW 35.4 mph 35.4 mph 46 % 0.0 in 842.0 W/m2 CLR
12:20 13.4 °F 1.7 °F 1020.5 in WNW 22.2 mph 22.2 mph 45 % 0.0 in 856.0 W/m2 CLR
12:25 13.6 °F 2.5 °F 1020.2 in NNW 27.8 mph 27.8 mph 47 % 0.0 in 870.0 W/m2 CLR
12:30 13.6 °F 1.9 °F 1020.2 in WNW 25.9 mph 25.9 mph 45 % 0.0 in 879.0 W/m2 CLR
12:35 13.8 °F 2.1 °F 1020.2 in NW 18.5 mph 18.5 mph 45 % 0.0 in 853.0 W/m2 CLR
12:40 14.2 °F 2.4 °F 1020.5 in NNW 22.5 mph 22.5 mph 45 % 0.0 in 868.0 W/m2 CLR
12:45 13.9 °F 1.2 °F 1020.5 in NNW 24.1 mph 24.1 mph 42 % 0.0 in 881.0 W/m2 CLR
12:50 14.1 °F 1.0 °F 1020.5 in NNW 35.4 mph 35.4 mph 41 % 0.0 in 896.0 W/m2 CLR
12:55 13.9 °F 1.2 °F 1020.5 in NW 27.8 mph 27.8 mph 42 % 0.0 in 898.0 W/m2 CLR
13:00 14.1 °F 2.0 °F 1020.2 in WNW 29.6 mph 29.6 mph 44 % 0.0 in 896.0 W/m2 CLR
13:05 14.3 °F 1.6 °F 1020.2 in WNW 22.2 mph 22.2 mph 42 % 0.0 in 858.0 W/m2 CLR
13:10 14.7 °F 1.2 °F 1020.2 in North 24.1 mph 24.1 mph 40 % 0.0 in 918.0 W/m2 CLR
13:15 14.7 °F 1.6 °F 1020.2 in NNW 18.5 mph 18.5 mph 41 % 0.0 in 921.0 W/m2 CLR
13:20 14.7 °F 1.2 °F 1020.2 in NNW 18.5 mph 18.5 mph 40 % 0.0 in 921.0 W/m2 CLR
13:25 14.9 °F 1.1 °F 1020.2 in North 18.5 mph 18.5 mph 39 % 0.0 in 923.0 W/m2 CLR
13:30 15.0 °F 1.5 °F 1020.2 in NNW 27.8 mph 27.8 mph 40 % 0.0 in 930.0 W/m2 CLR
13:35 15.1 °F 1.2 °F 1019.9 in NNW 29.6 mph 29.6 mph 39 % 0.0 in 949.0 W/m2 CLR
13:40 15.4 °F 1.5 °F 1019.9 in NNW 31.5 mph 31.5 mph 39 % 0.0 in 933.0 W/m2 CLR
13:45 15.2 °F 1.0 °F 1019.9 in NW 5.6 mph 5.6 mph 38 % 0.0 in 928.0 W/m2 CLR
13:50 15.3 °F 1.1 °F 1019.9 in NNW 24.1 mph 24.1 mph 38 % 0.0 in 932.0 W/m2 CLR
13:55 15.5 °F 1.6 °F 1019.9 in NW 24.1 mph 24.1 mph 39 % 0.0 in 940.0 W/m2 CLR
14:00 15.7 °F 1.4 °F 1019.9 in North 18.5 mph 18.5 mph 38 % 0.0 in 932.0 W/m2 CLR
14:05 15.6 °F 1.3 °F 1019.9 in NNW 24.1 mph 24.1 mph 38 % 0.0 in 932.0 W/m2 CLR
14:10 15.7 °F 1.0 °F 1019.9 in NNW 29.6 mph 29.6 mph 37 % 0.0 in 928.0 W/m2 CLR
14:15 15.7 °F 1.8 °F 1019.9 in NW 22.5 mph 22.5 mph 39 % 0.0 in 926.0 W/m2 CLR
14:20 16.0 °F 0.6 °F 1019.9 in North 31.5 mph 31.5 mph 35 % 0.0 in 923.0 W/m2 CLR
14:25 16.1 °F 1.3 °F 1019.9 in WNW 18.5 mph 18.5 mph 37 % 0.0 in 926.0 W/m2 CLR
14:30 16.2 °F 0.3 °F 1019.9 in NNW 29.6 mph 29.6 mph 34 % 0.0 in 919.0 W/m2 CLR
14:35 16.1 °F 0.9 °F 1019.9 in WNW 18.5 mph 18.5 mph 36 % 0.0 in 918.0 W/m2 CLR
14:36 16.1 °F 0.6 °F 1019.9 in NW 25.7 mph 25.7 mph 35 % 0.0 in 914.0 W/m2 CLR
14:41 16.3 °F 0.4 °F 1019.9 in NW 22.2 mph 22.2 mph 34 % 0.0 in 912.0 W/m2 CLR
14:46 16.2 °F -0.5 °F 1019.9 in WNW 27.8 mph 27.8 mph 32 % 0.0 in 909.0 W/m2 CLR
14:51 16.4 °F 0.1 °F 1019.9 in NW 30.6 mph 30.6 mph 33 % 0.0 in 904.0 W/m2 CLR
14:56 16.2 °F -0.1 °F 1019.9 in NNW 29.6 mph 29.6 mph 33 % 0.0 in 900.0 W/m2 CLR
15:01 16.3 °F 0.0 °F 1019.5 in NW 25.9 mph 25.9 mph 33 % 0.0 in 893.0 W/m2 CLR
15:06 16.5 °F 0.2 °F 1019.9 in NW 24.1 mph 24.1 mph 33 % 0.0 in 886.0 W/m2 CLR
15:11 16.6 °F -0.7 °F 1019.5 in NNW 31.5 mph 31.5 mph 31 % 0.0 in 882.0 W/m2 CLR
15:16 16.6 °F -0.6 °F 1019.5 in West 24.1 mph 24.1 mph 31 % 0.0 in 879.0 W/m2 CLR
15:21 16.7 °F -0.5 °F 1019.9 in NNW 25.9 mph 25.9 mph 31 % 0.0 in 872.0 W/m2 CLR
15:26 16.8 °F 0.0 °F 1019.9 in NW 22.2 mph 22.2 mph 32 % 0.0 in 863.0 W/m2 CLR
15:31 16.8 °F -0.4 °F 1019.9 in North 27.8 mph 27.8 mph 31 % 0.0 in 854.0 W/m2 CLR
15:36 16.7 °F -0.5 °F 1019.9 in WNW 31.5 mph 31.5 mph 31 % 0.0 in 847.0 W/m2 CLR
15:41 16.8 °F -0.9 °F 1019.9 in North 25.9 mph 25.9 mph 30 % 0.0 in 842.0 W/m2 CLR
15:46 17.1 °F -0.7 °F 1019.9 in NW 29.6 mph 29.6 mph 30 % 0.0 in 835.0 W/m2 CLR
15:51 17.2 °F -0.1 °F 1019.9 in North 25.9 mph 25.9 mph 31 % 0.0 in 826.0 W/m2 CLR
15:56 17.3 °F -0.5 °F 1019.5 in NW 18.5 mph 20.4 mph 30 % 0.0 in 816.0 W/m2 CLR
16:01 17.4 °F -0.8 °F 1019.9 in NNW 35.2 mph 35.2 mph 29 % 0.0 in 805.0 W/m2 CLR
16:06 17.4 °F -0.8 °F 1019.5 in NNW 22.2 mph 22.2 mph 29 % 0.0 in 798.0 W/m2 CLR
16:11 17.4 °F 0.1 °F 1019.5 in North 22.2 mph 22.2 mph 31 % 0.0 in 788.0 W/m2 CLR
16:16 17.7 °F -0.6 °F 1019.5 in NNW 24.1 mph 24.1 mph 29 % 0.0 in 777.0 W/m2 CLR
16:21 17.5 °F -0.8 °F 1019.5 in NNW 24.1 mph 24.1 mph 29 % 0.0 in 766.0 W/m2 CLR
16:26 17.6 °F -0.2 °F 1019.5 in NNW 22.2 mph 22.2 mph 30 % 0.0 in 758.0 W/m2 CLR
16:31 17.8 °F -0.4 °F 1019.5 in NNW 35.4 mph 35.4 mph 29 % 0.0 in 744.0 W/m2 CLR
16:36 17.6 °F -0.7 °F 1019.5 in NW 16.7 mph 16.7 mph 29 % 0.0 in 733.0 W/m2 CLR
16:41 17.8 °F -0.4 °F 1019.5 in WNW 18.5 mph 18.5 mph 29 % 0.0 in 721.0 W/m2 CLR
16:47 17.9 °F -0.9 °F 1019.5 in NNW 24.1 mph 24.1 mph 28 % 0.0 in 710.0 W/m2 CLR
16:52 17.9 °F -1.3 °F 1019.5 in WNW 22.5 mph 22.5 mph 27 % 0.0 in 696.0 W/m2 CLR
16:57 17.8 °F -1.9 °F 1019.5 in NNW 24.1 mph 24.1 mph 26 % 0.0 in 682.0 W/m2 CLR
17:02 17.7 °F -1.6 °F 1019.2 in WNW 13.0 mph 13.0 mph 27 % 0.0 in 670.0 W/m2 CLR
17:07 17.8 °F -1.9 °F 1019.5 in North 17.7 mph 17.7 mph 26 % 0.0 in 657.0 W/m2 CLR
17:12 17.9 °F -1.9 °F 1019.5 in NE 18.5 mph 18.5 mph 26 % 0.0 in 643.0 W/m2 CLR
17:17 18.1 °F -1.7 °F 1019.5 in North 24.1 mph 24.1 mph 26 % 0.0 in 629.0 W/m2 CLR
17:22 18.1 °F -1.8 °F 1019.5 in NNE 18.5 mph 18.5 mph 26 % 0.0 in 617.0 W/m2 CLR
17:27 17.8 °F -1.9 °F 1019.5 in North 22.2 mph 22.2 mph 26 % 0.0 in 603.0 W/m2 CLR
17:32 17.7 °F -1.6 °F 1019.5 in NNW 27.8 mph 27.8 mph 27 % 0.0 in 589.0 W/m2 CLR
17:37 17.7 °F -2.1 °F 1019.5 in North 5.6 mph 5.6 mph 26 % 0.0 in 570.0 W/m2 CLR
17:42 17.9 °F -1.4 °F 1019.5 in North 25.9 mph 25.9 mph 27 % 0.0 in 557.0 W/m2 CLR
17:47 17.9 °F -1.3 °F 1019.5 in NNW 18.5 mph 18.5 mph 27 % 0.0 in 543.0 W/m2 CLR
17:52 17.9 °F -1.3 °F 1019.5 in NNE 18.5 mph 18.5 mph 27 % 0.0 in 529.0 W/m2 CLR
17:57 18.0 °F -1.3 °F 1019.2 in North 13.0 mph 13.0 mph 27 % 0.0 in 515.0 W/m2 CLR
18:02 18.1 °F -1.8 °F 1019.2 in NNE 16.1 mph 16.1 mph 26 % 0.0 in 496.0 W/m2 CLR
18:07 17.9 °F -1.8 °F 1019.5 in NNW 11.1 mph 11.1 mph 26 % 0.0 in 480.0 W/m2 CLR
18:12 18.1 °F -1.3 °F 1019.5 in NE 1.9 mph   27 % 0.0 in 462.0 W/m2 CLR
18:17 18.1 °F -1.2 °F 1019.2 in North 16.7 mph 16.7 mph 27 % 0.0 in 448.0 W/m2 CLR
18:22 18.3 °F -0.5 °F 1019.2 in NNE 16.7 mph 16.7 mph 28 % 0.0 in 431.0 W/m2 CLR
18:27 18.4 °F -0.9 °F 1019.2 in NNW 14.8 mph 14.8 mph 27 % 0.0 in 417.0 W/m2 CLR
18:32 18.4 °F -0.9 °F 1019.2 in NNW 14.8 mph 14.8 mph 27 % 0.0 in 397.0 W/m2 CLR
18:37 18.3 °F -1.1 °F 1019.2 in WSW 11.1 mph 11.1 mph 27 % 0.0 in 378.0 W/m2 CLR
18:38 18.3 °F -1.1 °F 1019.2 in WSW 1.9 mph   27 % 0.0 in 376.0 W/m2 CLR
18:43 18.4 °F -0.4 °F 1019.2 in NNW 11.3 mph 11.3 mph 28 % 0.0 in 360.0 W/m2 CLR
18:48 18.5 °F -0.9 °F 1019.2 in North 3.7 mph   27 % 0.0 in 348.0 W/m2 CLR
18:53 18.4 °F -0.9 °F 1019.2 in Calm     27 % 0.0 in 329.0 W/m2 CLR
18:58 18.6 °F -0.3 °F 1019.2 in Calm     28 % 0.0 in 311.0 W/m2 CLR
19:03 18.6 °F -0.8 °F 1019.2 in Calm     27 % 0.0 in 294.0 W/m2 CLR
19:08 18.7 °F -0.2 °F 1019.2 in Calm     28 % 0.0 in 276.0 W/m2 CLR
19:13 18.7 °F -0.2 °F 1019.2 in NNE 3.7 mph 3.7 mph 28 % 0.0 in 260.0 W/m2 CLR
19:18 18.7 °F -0.2 °F 1019.2 in Calm     28 % 0.0 in 246.0 W/m2 CLR
19:23 19.0 °F 0.1 °F 1019.2 in Calm     28 % 0.0 in 221.0 W/m2 CLR
19:28 19.0 °F 0.1 °F 1019.2 in North 5.6 mph 5.6 mph 28 % 0.0 in 209.0 W/m2 CLR
19:33 18.8 °F -0.1 °F 1019.2 in Calm     28 % 0.0 in 179.0 W/m2 CLR
19:38 18.8 °F 0.4 °F 1019.2 in Calm     29 % 0.0 in 144.0 W/m2 CLR
19:43 18.7 °F -0.2 °F 1019.5 in NE 5.6 mph 5.6 mph 28 % 0.0 in 84.0 W/m2 CLR
19:48 18.2 °F -0.1 °F 1019.5 in Calm     29 % 0.0 in 76.0 W/m2 CLR
19:53 17.9 °F -0.4 °F 1019.5 in Calm     29 % 0.0 in 60.0 W/m2 FEW
19:54 17.9 °F -0.4 °F 1019.5 in Calm     29 % 0.0 in 60.0 W/m2 FEW
19:59 17.6 °F -0.2 °F 1019.5 in Calm     30 % 0.0 in 44.0 W/m2 BKN
20:04 17.2 °F -0.1 °F 1019.5 in Calm     31 % 0.0 in 56.0 W/m2 SCT
20:09 17.0 °F -0.3 °F 1019.5 in Calm     31 % 0.0 in 39.0 W/m2 BKN
20:14 16.8 °F 0.0 °F 1019.5 in Calm     32 % 0.0 in 26.0 W/m2 BKN
20:19 16.7 °F -0.1 °F 1019.5 in Calm     32 % 0.0 in 33.0 W/m2 BKN
20:24 16.7 °F -0.1 °F 1019.5 in Calm     32 % 0.0 in 33.0 W/m2 BKN
20:29 16.7 °F 0.3 °F 1019.5 in Calm     33 % 0.0 in 25.0 W/m2 BKN
20:34 16.7 °F 0.3 °F 1019.5 in Calm     33 % 0.0 in 18.0 W/m2 BKN
20:39 16.6 °F 0.7 °F 1019.9 in Calm     34 % 0.0 in 14.0 W/m2 BKN
20:44 16.4 °F 0.9 °F 1019.9 in Calm     35 % 0.0 in 11.0 W/m2 BKN
20:49 16.1 °F 1.0 °F 1019.9 in Calm     36 % 0.0 in 7.0 W/m2 BKN
20:54 15.9 °F 0.8 °F 1019.9 in Calm     36 % 0.0 in 5.0 W/m2 OVC
20:59 15.7 °F 1.0 °F 1019.9 in Calm     37 % 0.0 in 0.0 W/m2 OVC
21:04 15.4 °F 1.1 °F 1019.9 in Calm     38 % 0.0 in 0.0 W/m2 CLR
21:09 15.2 °F 1.3 °F 1019.9 in Calm     39 % 0.0 in 0.0 W/m2 CLR
21:14 14.9 °F 0.7 °F 1020.2 in Calm     38 % 0.0 in 0.0 W/m2 CLR
21:19 14.7 °F 1.2 °F 1020.2 in Calm     40 % 0.0 in 0.0 W/m2 CLR
21:24 14.4 °F 1.6 °F 1020.2 in Calm     42 % 0.0 in 0.0 W/m2 CLR
21:29 14.0 °F 1.3 °F 1020.2 in Calm     42 % 0.0 in 0.0 W/m2 CLR
21:34 13.7 °F 2.3 °F 1020.2 in Calm     46 % 0.0 in 0.0 W/m2 CLR
21:39 13.3 °F 2.6 °F 1020.5 in Calm     48 % 0.0 in 0.0 W/m2 CLR
21:44 12.9 °F 2.7 °F 1020.5 in Calm     50 % 0.0 in 0.0 W/m2 CLR
21:49 12.4 °F 2.6 °F 1020.5 in Calm     51 % 0.0 in 0.0 W/m2 CLR
21:54 12.2 °F 2.6 °F 1020.5 in Calm     52 % 0.0 in 0.0 W/m2 CLR
21:59 12.0 °F 2.4 °F 1020.5 in Calm     52 % 0.0 in 0.0 W/m2 CLR
22:04 11.9 °F 2.3 °F 1020.5 in Calm     52 % 0.0 in 0.0 W/m2 CLR
22:09 11.8 °F 2.5 °F 1020.5 in Calm     53 % 0.0 in 0.0 W/m2 CLR
22:14 11.6 °F 2.6 °F 1020.9 in Calm     54 % 0.0 in 0.0 W/m2 CLR
22:19 11.3 °F 2.6 °F 1020.9 in Calm     55 % 0.0 in 0.0 W/m2 CLR
22:24 11.1 °F 2.6 °F 1020.9 in Calm     56 % 0.0 in 0.0 W/m2 CLR
22:29 10.9 °F 2.4 °F 1020.9 in Calm     56 % 0.0 in 0.0 W/m2 CLR
22:34 10.8 °F 2.6 °F 1020.9 in Calm     57 % 0.0 in 0.0 W/m2 CLR
22:39 10.6 °F 2.4 °F 1020.9 in Calm     57 % 0.0 in 0.0 W/m2 CLR
22:44 10.4 °F 2.7 °F 1021.2 in Calm     59 % 0.0 in 0.0 W/m2 CLR
22:49 10.2 °F 2.5 °F 1021.2 in Calm     59 % 0.0 in 0.0 W/m2 CLR
22:54 9.9 °F 2.6 °F 1021.2 in Calm     60 % 0.0 in 0.0 W/m2 CLR
22:59 9.7 °F 2.6 °F 1021.2 in Calm     61 % 0.0 in 0.0 W/m2 CLR
23:04 9.6 °F 2.4 °F 1021.2 in Calm     61 % 0.0 in 0.0 W/m2 CLR
23:09 9.6 °F 2.4 °F 1021.2 in Calm     61 % 0.0 in 0.0 W/m2 CLR
23:14 9.5 °F 2.6 °F 1021.6 in Calm     62 % 0.0 in 0.0 W/m2 CLR
23:19 9.3 °F 2.4 °F 1021.6 in Calm     62 % 0.0 in 0.0 W/m2 CLR
23:24 9.1 °F 2.4 °F 1021.6 in Calm     63 % 0.0 in 0.0 W/m2 CLR
23:29 9.0 °F 2.3 °F 1021.6 in Calm     63 % 0.0 in 0.0 W/m2 CLR
23:34 8.9 °F 2.4 °F 1021.2 in Calm     64 % 0.0 in 0.0 W/m2 CLR
23:39 8.9 °F 2.4 °F 1021.2 in Calm     64 % 0.0 in 0.0 W/m2 CLR
23:44 8.8 °F 2.6 °F 1021.6 in Calm     65 % 0.0 in 0.0 W/m2 CLR
23:49 8.7 °F 2.4 °F 1021.6 in Calm     65 % 0.0 in 0.0 W/m2 CLR
23:54 8.5 °F 2.3 °F 1021.2 in Calm     65 % 0.0 in 0.0 W/m2 CLR
23:59 8.4 °F 2.4 °F 1021.2 in Calm     66 % 0.0 in 0.0 W/m2 CLR
Lo Temps de Massalio
Compliments of Weather Underground - 1.25 mb